LS Concorde — ZDHJ7 — position and weather

sailwx.info

Track history (hours):
 
Tides and Currents Weather Stations Pressure Air Temp Water Temp Dewpoint Dewpoint Depression Visibility Wind Speed Wind Dir Waves Ship Positions

LS Concorde

Last reported at 2016-Jun-24 19:31 UTC. Time now 2016-Jun-24 20:26 UTC.
Position N 51°30' E 001°30'.

Length 99 m; draft 5 m.

Type: Tanker. MMSI: 236329000.

Date/timePositionNaut miles runAvg speedWind from/ knotsBaromVisibWave heightAir tempDewpointWater temp
2016-Jun-24 19:31N 51°30' E 001°30'0 0.0
2016-Jun-24 18:32N 51°30' E 001°29'1110.8
2016-Jun-24 17:34N 51°29' E 001°13'1514.7
2016-Jun-24 16:33N 51°29' E 000°49'1313.4
2016-Jun-24 15:33N 51°29' E 000°27'4 3.9
2016-Jun-24 14:33N 51°27' E 000°22'0 0.0
2016-Jun-24 13:33N 51°27' E 000°22'0 0.0
2016-Jun-24 12:34N 51°27' E 000°22'0 0.0
2016-Jun-24 11:33N 51°27' E 000°22'2 1.5
2016-Jun-24 10:34N 51°27' E 000°24'9 8.8
2016-Jun-24 09:34N 51°30' E 000°37'6 6.2
2016-Jun-24 08:33N 51°30' E 000°47'0 0.0
2016-Jun-24 07:33N 51°30' E 000°47'0 0.0
2016-Jun-24 04:33N 51°30' E 000°47'0 0.0
2016-Jun-24 03:34N 51°30' E 000°47'0 0.1
2016-Jun-24 02:33N 51°30' E 000°47'0 0.0
2016-Jun-24 01:34N 51°30' E 000°47'0 0.0
2016-Jun-24 00:33N 51°30' E 000°47'0 0.0
2016-Jun-23 23:33N 51°30' E 000°47'0 0.0
2016-Jun-23 22:33N 51°30' E 000°47'0 0.1
2016-Jun-23 21:33N 51°30' E 000°47'0 0.0
2016-Jun-23 20:33N 51°30' E 000°47'0 0.0
2016-Jun-23 19:33N 51°30' E 000°47'0 0.0
2016-Jun-23 18:33N 51°30' E 000°47'0 0.0
2016-Jun-23 17:33N 51°30' E 000°47'0 0.0
2016-Jun-23 16:33N 51°30' E 000°47'9 9.0
2016-Jun-23 15:33N 51°30' E 001°02'1312.3
2016-Jun-23 14:30N 51°29' E 001°23'4 3.8
2016-Jun-23 13:31N 51°30' E 001°28'0 0.0
2016-Jun-23 12:31N 51°30' E 001°28'0 0.0
2016-Jun-23 11:31N 51°30' E 001°28'0 0.0
2016-Jun-23 10:28N 51°30' E 001°29'0 0.0
2016-Jun-23 09:31N 51°30' E 001°29'0 0.0
2016-Jun-23 08:31N 51°30' E 001°29'0 0.1
2016-Jun-23 07:31N 51°30' E 001°29'0 0.0
2016-Jun-23 05:31N 51°30' E 001°29'0 0.0
2016-Jun-23 04:31N 51°30' E 001°29'0 0.0
2016-Jun-23 03:31N 51°30' E 001°29'0 0.1
2016-Jun-23 02:31N 51°30' E 001°29'0 0.0
2016-Jun-23 01:31N 51°30' E 001°28'0 0.0
2016-Jun-23 00:28N 51°30' E 001°28'1 0.8
2016-Jun-22 23:31N 51°30' E 001°30'0 0.1
2016-Jun-22 22:31N 51°30' E 001°30'0 0.0
2016-Jun-22 21:31N 51°30' E 001°30'0 0.1
2016-Jun-22 20:31N 51°30' E 001°30'0 0.1
2016-Jun-22 18:10N 51°30' E 001°30'0 0.0
2016-Jun-22 16:33N 51°30' E 001°30'1 0.9
2016-Jun-22 15:31N 51°30' E 001°29'0 0.1
2016-Jun-22 14:31N 51°30' E 001°29'0 0.1
2016-Jun-22 13:31N 51°30' E 001°28'0 0.0
2016-Jun-22 12:31N 51°30' E 001°28'0 0.0
2016-Jun-22 11:31N 51°30' E 001°28'0 0.0
2016-Jun-22 10:25N 51°30' E 001°28'0 0.0
2016-Jun-22 09:31N 51°30' E 001°29'0 0.0
2016-Jun-22 08:31N 51°30' E 001°29'0 0.0
2016-Jun-22 07:31N 51°30' E 001°29'0 0.0
2016-Jun-22 06:31N 51°30' E 001°29'0 0.0
2016-Jun-22 05:22N 51°30' E 001°29'0 0.0
2016-Jun-22 04:31N 51°30' E 001°29'0 0.0
2016-Jun-22 03:28N 51°30' E 001°29'0 0.0
2016-Jun-22 02:31N 51°30' E 001°29'0 0.1
2016-Jun-22 01:31N 51°30' E 001°29'0 0.0
2016-Jun-22 00:31N 51°30' E 001°28'0 0.0
2016-Jun-21 23:28N 51°30' E 001°28'0 0.0
2016-Jun-21 22:31N 51°30' E 001°28'0 0.0
2016-Jun-21 21:31N 51°30' E 001°28'0 0.0
2016-Jun-21 20:31N 51°30' E 001°29'0 0.0
2016-Jun-21 19:31N 51°30' E 001°29'0 0.0
2016-Jun-21 18:07N 51°30' E 001°29'0 0.0
2016-Jun-21 17:04N 51°30' E 001°29'0 0.0
2016-Jun-21 16:31N 51°30' E 001°29'0 0.0
2016-Jun-21 15:28N 51°30' E 001°29'0 0.0
2016-Jun-21 14:31N 51°30' E 001°29'0 0.0
2016-Jun-21 13:31N 51°30' E 001°29'0 0.0
2016-Jun-21 12:31N 51°30' E 001°28'0 0.0
2016-Jun-21 11:31N 51°30' E 001°28'0 0.0
2016-Jun-21 10:31N 51°30' E 001°28'0 0.0
2016-Jun-21 09:31N 51°30' E 001°29'0 0.0
2016-Jun-21 08:31N 51°30' E 001°29'0 0.0
2016-Jun-21 07:28N 51°30' E 001°29'0 0.0
2016-Jun-21 04:31N 51°30' E 001°29'0 0.0
2016-Jun-21 03:22N 51°30' E 001°29'3 3.6
2016-Jun-21 02:33N 51°33' E 001°31'0 0.0
2016-Jun-21 01:34N 51°33' E 001°31'0 0.0
2016-Jun-21 00:34N 51°33' E 001°31'0 0.5
2016-Jun-20 23:34N 51°33' E 001°31'1110.6
2016-Jun-20 22:34N 51°29' E 001°15'1111.3
2016-Jun-20 21:34N 51°29' E 000°57'1111.1
2016-Jun-20 20:33N 51°30' E 000°39'6 5.9
2016-Jun-20 19:34N 51°30' E 000°29'0 0.0
2016-Jun-20 18:34N 51°30' E 000°29'0 0.0
2016-Jun-20 17:34N 51°30' E 000°29'0 0.0
2016-Jun-20 16:34N 51°30' E 000°29'0 0.0
2016-Jun-20 15:34N 51°30' E 000°29'0 0.0
2016-Jun-20 14:34N 51°30' E 000°29'0 0.0
2016-Jun-20 13:34N 51°30' E 000°29'0 0.0
2016-Jun-20 12:33N 51°30' E 000°29'0 0.0
2016-Jun-20 11:34N 51°30' E 000°29'0 0.0
2016-Jun-20 10:34N 51°30' E 000°29'2 2.5
2016-Jun-20 09:34N 51°30' E 000°33'0 0.1
2016-Jun-20 08:33N 51°31' E 000°33'0 0.0
2016-Jun-20 07:33N 51°31' E 000°33'0 0.0
2016-Jun-20 06:33N 51°31' E 000°33'0 0.0
2016-Jun-20 05:33N 51°31' E 000°33'0 0.0
2016-Jun-20 04:33N 51°31' E 000°33'0 0.0
2016-Jun-20 03:33N 51°31' E 000°33'0 0.0
2016-Jun-20 02:33N 51°31' E 000°33'0 0.0
2016-Jun-20 01:33N 51°31' E 000°33'0 0.0
2016-Jun-20 00:33N 51°31' E 000°33'0 0.0
2016-Jun-19 23:33N 51°31' E 000°33'0 0.0
2016-Jun-19 22:33N 51°31' E 000°33'0 0.0
2016-Jun-19 21:33N 51°31' E 000°33'0 0.0
2016-Jun-19 20:33N 51°31' E 000°33'0 0.0
2016-Jun-19 19:33N 51°31' E 000°33'0 0.0
2016-Jun-19 18:33N 51°31' E 000°33'0 0.0
2016-Jun-19 17:33N 51°31' E 000°33'0 0.0
2016-Jun-19 16:33N 51°31' E 000°33'0 0.0
2016-Jun-19 15:33N 51°31' E 000°33'0 0.0
2016-Jun-19 14:33N 51°31' E 000°33'0 0.0
2016-Jun-19 13:33N 51°31' E 000°33'0 0.0
2016-Jun-19 12:33N 51°31' E 000°33'0 0.0
2016-Jun-19 11:33N 51°31' E 000°33'0 0.0
2016-Jun-19 10:33N 51°31' E 000°33'0 0.0
2016-Jun-19 09:33N 51°31' E 000°33'0 0.0
2016-Jun-19 08:33N 51°31' E 000°33'0 0.0
2016-Jun-19 07:33N 51°31' E 000°33'0 0.0
2016-Jun-19 06:33N 51°31' E 000°33'0 0.0
2016-Jun-19 05:33N 51°31' E 000°33'0 0.0
2016-Jun-19 04:33N 51°31' E 000°33'0 0.0
2016-Jun-19 03:33N 51°31' E 000°33'0 0.0
2016-Jun-19 02:33N 51°31' E 000°33'0 0.0
2016-Jun-19 01:33N 51°31' E 000°33'0 0.0
2016-Jun-19 00:33N 51°31' E 000°33'0 0.0
2016-Jun-18 23:33N 51°31' E 000°33'0 0.0
2016-Jun-18 22:33N 51°31' E 000°33'0 0.0
2016-Jun-18 21:33N 51°31' E 000°33'0 0.0
2016-Jun-18 20:33N 51°31' E 000°33'0 0.0
2016-Jun-18 19:33N 51°31' E 000°33'0 0.0
2016-Jun-18 18:33N 51°31' E 000°33'0 0.0
2016-Jun-18 17:33N 51°31' E 000°33'0 0.0
2016-Jun-18 16:33N 51°31' E 000°33'0 0.0
2016-Jun-18 15:33N 51°31' E 000°33'0 0.0
2016-Jun-18 14:33N 51°31' E 000°33'0 0.0
2016-Jun-18 13:33N 51°31' E 000°33'0 0.0
2016-Jun-18 12:33N 51°31' E 000°33'0 0.0
2016-Jun-18 11:33N 51°31' E 000°33'0 0.0
2016-Jun-18 10:33N 51°31' E 000°33'0 0.0
2016-Jun-18 09:33N 51°31' E 000°33'0 0.0
2016-Jun-18 08:33N 51°31' E 000°33'0 0.0
2016-Jun-18 07:33N 51°31' E 000°33'0 0.0
2016-Jun-18 06:33N 51°31' E 000°33'0 0.0
2016-Jun-18 05:33N 51°31' E 000°33'0 0.0
2016-Jun-18 04:27N 51°31' E 000°33'0 0.0
2016-Jun-18 03:33N 51°31' E 000°33'0 0.0
2016-Jun-18 02:33N 51°31' E 000°33'0 0.0
2016-Jun-18 01:33N 51°31' E 000°33'0 0.0
2016-Jun-18 00:33N 51°31' E 000°33'0 0.0
2016-Jun-17 23:33N 51°31' E 000°33'0 0.0
2016-Jun-17 22:33N 51°31' E 000°33'0 0.0
2016-Jun-17 21:33N 51°31' E 000°33'0 0.0
2016-Jun-17 20:33N 51°31' E 000°33'7 7.2
2016-Jun-17 19:34N 51°30' E 000°45'1212.3
2016-Jun-17 18:34N 51°30' E 001°04'1413.6
2016-Jun-17 17:33N 51°30' E 001°26'2 1.9
2016-Jun-17 16:31N 51°30' E 001°29'0 0.1
2016-Jun-17 15:28N 51°30' E 001°29'0 0.1
2016-Jun-17 14:31N 51°30' E 001°29'1 1.3
2016-Jun-17 13:33N 51°29' E 001°30'1212.4
2016-Jun-17 12:33N 51°17' E 001°36'1212.1
2016-Jun-17 11:33N 51°08' E 001°24'3 3.3
2016-Jun-17 10:33N 51°07' E 001°19'0 0.0
2016-Jun-17 08:12N 51°07' E 001°19'0 0.0
2016-Jun-17 06:33N 51°07' E 001°19'6 6.2
2016-Jun-17 05:34N 51°10' E 001°28'0 0.2
2016-Jun-17 04:31N 51°10' E 001°28'0 0.0
2016-Jun-17 03:31N 51°10' E 001°28'0 0.0
2016-Jun-17 02:31N 51°10' E 001°28'0 0.1
2016-Jun-17 01:31N 51°10' E 001°28'0 0.0
2016-Jun-17 00:31N 51°10' E 001°28'0 0.0
2016-Jun-16 23:31N 51°10' E 001°28'0 0.0
2016-Jun-16 22:31N 51°10' E 001°28'0 0.0
2016-Jun-16 21:31N 51°10' E 001°28'0 0.0
2016-Jun-16 20:31N 51°10' E 001°28'0 0.0
2016-Jun-16 19:31N 51°10' E 001°28'5 4.8
2016-Jun-16 18:34N 51°12' E 001°34'1413.6
2016-Jun-16 17:33N 51°26' E 001°33'5 4.4
2016-Jun-16 16:31N 51°30' E 001°31'0 0.1
2016-Jun-16 15:31N 51°30' E 001°31'0 0.1
2016-Jun-16 14:31N 51°30' E 001°31'0 0.0
2016-Jun-16 13:31N 51°31' E 001°31'0 0.0
2016-Jun-16 12:31N 51°31' E 001°31'0 0.0
2016-Jun-16 11:31N 51°31' E 001°31'0 0.0
2016-Jun-16 10:32N 51°31' E 001°31'0 0.1
2016-Jun-16 09:31N 51°31' E 001°31'0 0.0
2016-Jun-16 08:31N 51°30' E 001°31'2 2.2
2016-Jun-16 07:33N 51°33' E 001°32'0 0.1
2016-Jun-16 06:31N 51°33' E 001°32'1 1.5
2016-Jun-16 05:33N 51°32' E 001°30'2 1.5
2016-Jun-16 04:31N 51°30' E 001°29'0 0.1
2016-Jun-16 03:25N 51°30' E 001°29'0 0.0
2016-Jun-16 02:31N 51°30' E 001°29'0 0.0
2016-Jun-16 01:31N 51°30' E 001°29'0 0.0
2016-Jun-16 00:31N 51°30' E 001°29'0 0.0
2016-Jun-15 23:31N 51°30' E 001°29'0 0.0
2016-Jun-15 22:31N 51°30' E 001°29'0 0.0
2016-Jun-15 21:31N 51°30' E 001°29'0 0.0
2016-Jun-15 20:31N 51°30' E 001°29'0 0.0
2016-Jun-15 19:31N 51°30' E 001°29'0 0.0
2016-Jun-15 18:31N 51°30' E 001°29'0 0.0
2016-Jun-15 17:31N 51°30' E 001°29'0 0.0
2016-Jun-15 16:31N 51°30' E 001°29'0 0.0
2016-Jun-15 15:28N 51°30' E 001°29'0 0.0
2016-Jun-15 14:31N 51°30' E 001°29'0 0.0
2016-Jun-15 12:31N 51°30' E 001°29'0 0.0
2016-Jun-15 11:31N 51°30' E 001°29'0 0.0
2016-Jun-15 10:31N 51°30' E 001°29'0 0.0
2016-Jun-15 09:32N 51°30' E 001°29'1 1.3
2016-Jun-15 08:33N 51°32' E 001°28'0 0.2
2016-Jun-15 07:33N 51°32' E 001°28'0 0.1
2016-Jun-15 06:33N 51°32' E 001°28'2 1.8
2016-Jun-15 05:32N 51°30' E 001°30'0 0.0
2016-Jun-15 04:32N 51°30' E 001°30'0 0.1
2016-Jun-15 03:31N 51°30' E 001°30'0 0.1
2016-Jun-15 02:32N 51°30' E 001°30'0 0.0
2016-Jun-15 01:32N 51°30' E 001°30'0 0.0
2016-Jun-15 00:31N 51°30' E 001°30'0 0.0
2016-Jun-14 23:32N 51°30' E 001°30'0 0.0
2016-Jun-14 22:31N 51°30' E 001°30'0 0.0
2016-Jun-14 21:32N 51°30' E 001°30'0 0.0
2016-Jun-14 20:31N 51°30' E 001°30'0 0.0
2016-Jun-14 19:31N 51°30' E 001°30'  
Track history (hours):
 
Tides and Currents Weather Stations Pressure Air Temp Water Temp Dewpoint Dewpoint Depression Visibility Wind Speed Wind Dir Waves Ship Positions

LS Concorde

Last reported at 2016-Jun-24 19:31 UTC. Time now 2016-Jun-24 20:26 UTC.
Position N 51°30' E 001°30'.

Length 99 m; draft 5 m.

Type: Tanker. MMSI: 236329000.

Date/timePositionNaut miles runAvg speedWind from/ knotsBaromVisibWave heightAir tempDewpointWater temp
2016-Jun-24 19:31N 51°30' E 001°30'0 0.0
2016-Jun-24 18:32N 51°30' E 001°29'1110.8
2016-Jun-24 17:34N 51°29' E 001°13'1514.7
2016-Jun-24 16:33N 51°29' E 000°49'1313.4
2016-Jun-24 15:33N 51°29' E 000°27'4 3.9
2016-Jun-24 14:33N 51°27' E 000°22'0 0.0
2016-Jun-24 13:33N 51°27' E 000°22'0 0.0
2016-Jun-24 12:34N 51°27' E 000°22'0 0.0
2016-Jun-24 11:33N 51°27' E 000°22'2 1.5
2016-Jun-24 10:34N 51°27' E 000°24'9 8.8
2016-Jun-24 09:34N 51°30' E 000°37'6 6.2
2016-Jun-24 08:33N 51°30' E 000°47'0 0.0
2016-Jun-24 07:33N 51°30' E 000°47'0 0.0
2016-Jun-24 04:33N 51°30' E 000°47'0 0.0
2016-Jun-24 03:34N 51°30' E 000°47'0 0.1
2016-Jun-24 02:33N 51°30' E 000°47'0 0.0
2016-Jun-24 01:34N 51°30' E 000°47'0 0.0
2016-Jun-24 00:33N 51°30' E 000°47'0 0.0
2016-Jun-23 23:33N 51°30' E 000°47'0 0.0
2016-Jun-23 22:33N 51°30' E 000°47'0 0.1
2016-Jun-23 21:33N 51°30' E 000°47'0 0.0
2016-Jun-23 20:33N 51°30' E 000°47'0 0.0
2016-Jun-23 19:33N 51°30' E 000°47'0 0.0
2016-Jun-23 18:33N 51°30' E 000°47'0 0.0
2016-Jun-23 17:33N 51°30' E 000°47'0 0.0
2016-Jun-23 16:33N 51°30' E 000°47'9 9.0
2016-Jun-23 15:33N 51°30' E 001°02'1312.3
2016-Jun-23 14:30N 51°29' E 001°23'4 3.8
2016-Jun-23 13:31N 51°30' E 001°28'0 0.0
2016-Jun-23 12:31N 51°30' E 001°28'0 0.0
2016-Jun-23 11:31N 51°30' E 001°28'0 0.0
2016-Jun-23 10:28N 51°30' E 001°29'0 0.0
2016-Jun-23 09:31N 51°30' E 001°29'0 0.0
2016-Jun-23 08:31N 51°30' E 001°29'0 0.1
2016-Jun-23 07:31N 51°30' E 001°29'0 0.0
2016-Jun-23 05:31N 51°30' E 001°29'0 0.0
2016-Jun-23 04:31N 51°30' E 001°29'0 0.0
2016-Jun-23 03:31N 51°30' E 001°29'0 0.1
2016-Jun-23 02:31N 51°30' E 001°29'0 0.0
2016-Jun-23 01:31N 51°30' E 001°28'0 0.0
2016-Jun-23 00:28N 51°30' E 001°28'1 0.8
2016-Jun-22 23:31N 51°30' E 001°30'0 0.1
2016-Jun-22 22:31N 51°30' E 001°30'0 0.0
2016-Jun-22 21:31N 51°30' E 001°30'0 0.1
2016-Jun-22 20:31N 51°30' E 001°30'0 0.1
2016-Jun-22 18:10N 51°30' E 001°30'0 0.0
2016-Jun-22 16:33N 51°30' E 001°30'1 0.9
2016-Jun-22 15:31N 51°30' E 001°29'0 0.1
2016-Jun-22 14:31N 51°30' E 001°29'0 0.1
2016-Jun-22 13:31N 51°30' E 001°28'0 0.0
2016-Jun-22 12:31N 51°30' E 001°28'0 0.0
2016-Jun-22 11:31N 51°30' E 001°28'0 0.0
2016-Jun-22 10:25N 51°30' E 001°28'0 0.0
2016-Jun-22 09:31N 51°30' E 001°29'0 0.0
2016-Jun-22 08:31N 51°30' E 001°29'0 0.0
2016-Jun-22 07:31N 51°30' E 001°29'0 0.0
2016-Jun-22 06:31N 51°30' E 001°29'0 0.0
2016-Jun-22 05:22N 51°30' E 001°29'0 0.0
2016-Jun-22 04:31N 51°30' E 001°29'0 0.0
2016-Jun-22 03:28N 51°30' E 001°29'0 0.0
2016-Jun-22 02:31N 51°30' E 001°29'0 0.1
2016-Jun-22 01:31N 51°30' E 001°29'0 0.0
2016-Jun-22 00:31N 51°30' E 001°28'0 0.0
2016-Jun-21 23:28N 51°30' E 001°28'0 0.0
2016-Jun-21 22:31N 51°30' E 001°28'0 0.0
2016-Jun-21 21:31N 51°30' E 001°28'0 0.0
2016-Jun-21 20:31N 51°30' E 001°29'0 0.0
2016-Jun-21 19:31N 51°30' E 001°29'0 0.0
2016-Jun-21 18:07N 51°30' E 001°29'0 0.0
2016-Jun-21 17:04N 51°30' E 001°29'0 0.0
2016-Jun-21 16:31N 51°30' E 001°29'0 0.0
2016-Jun-21 15:28N 51°30' E 001°29'0 0.0
2016-Jun-21 14:31N 51°30' E 001°29'0 0.0
2016-Jun-21 13:31N 51°30' E 001°29'0 0.0
2016-Jun-21 12:31N 51°30' E 001°28'0 0.0
2016-Jun-21 11:31N 51°30' E 001°28'0 0.0
2016-Jun-21 10:31N 51°30' E 001°28'0 0.0
2016-Jun-21 09:31N 51°30' E 001°29'0 0.0
2016-Jun-21 08:31N 51°30' E 001°29'0 0.0
2016-Jun-21 07:28N 51°30' E 001°29'0 0.0
2016-Jun-21 04:31N 51°30' E 001°29'0 0.0
2016-Jun-21 03:22N 51°30' E 001°29'3 3.6
2016-Jun-21 02:33N 51°33' E 001°31'0 0.0
2016-Jun-21 01:34N 51°33' E 001°31'0 0.0
2016-Jun-21 00:34N 51°33' E 001°31'0 0.5
2016-Jun-20 23:34N 51°33' E 001°31'1110.6
2016-Jun-20 22:34N 51°29' E 001°15'1111.3
2016-Jun-20 21:34N 51°29' E 000°57'1111.1
2016-Jun-20 20:33N 51°30' E 000°39'6 5.9
2016-Jun-20 19:34N 51°30' E 000°29'0 0.0
2016-Jun-20 18:34N 51°30' E 000°29'0 0.0
2016-Jun-20 17:34N 51°30' E 000°29'0 0.0
2016-Jun-20 16:34N 51°30' E 000°29'0 0.0
2016-Jun-20 15:34N 51°30' E 000°29'0 0.0
2016-Jun-20 14:34N 51°30' E 000°29'0 0.0
2016-Jun-20 13:34N 51°30' E 000°29'0 0.0
2016-Jun-20 12:33N 51°30' E 000°29'0 0.0
2016-Jun-20 11:34N 51°30' E 000°29'0 0.0
2016-Jun-20 10:34N 51°30' E 000°29'2 2.5
2016-Jun-20 09:34N 51°30' E 000°33'0 0.1
2016-Jun-20 08:33N 51°31' E 000°33'0 0.0
2016-Jun-20 07:33N 51°31' E 000°33'0 0.0
2016-Jun-20 06:33N 51°31' E 000°33'0 0.0
2016-Jun-20 05:33N 51°31' E 000°33'0 0.0
2016-Jun-20 04:33N 51°31' E 000°33'0 0.0
2016-Jun-20 03:33N 51°31' E 000°33'0 0.0
2016-Jun-20 02:33N 51°31' E 000°33'0 0.0
2016-Jun-20 01:33N 51°31' E 000°33'0 0.0
2016-Jun-20 00:33N 51°31' E 000°33'0 0.0
2016-Jun-19 23:33N 51°31' E 000°33'0 0.0
2016-Jun-19 22:33N 51°31' E 000°33'0 0.0
2016-Jun-19 21:33N 51°31' E 000°33'0 0.0
2016-Jun-19 20:33N 51°31' E 000°33'0 0.0
2016-Jun-19 19:33N 51°31' E 000°33'0 0.0
2016-Jun-19 18:33N 51°31' E 000°33'0 0.0
2016-Jun-19 17:33N 51°31' E 000°33'0 0.0
2016-Jun-19 16:33N 51°31' E 000°33'0 0.0
2016-Jun-19 15:33N 51°31' E 000°33'0 0.0
2016-Jun-19 14:33N 51°31' E 000°33'0 0.0
2016-Jun-19 13:33N 51°31' E 000°33'0 0.0
2016-Jun-19 12:33N 51°31' E 000°33'0 0.0
2016-Jun-19 11:33N 51°31' E 000°33'0 0.0
2016-Jun-19 10:33N 51°31' E 000°33'0 0.0
2016-Jun-19 09:33N 51°31' E 000°33'0 0.0
2016-Jun-19 08:33N 51°31' E 000°33'0 0.0
2016-Jun-19 07:33N 51°31' E 000°33'0 0.0
2016-Jun-19 06:33N 51°31' E 000°33'0 0.0
2016-Jun-19 05:33N 51°31' E 000°33'0 0.0
2016-Jun-19 04:33N 51°31' E 000°33'0 0.0
2016-Jun-19 03:33N 51°31' E 000°33'0 0.0
2016-Jun-19 02:33N 51°31' E 000°33'0 0.0
2016-Jun-19 01:33N 51°31' E 000°33'0 0.0
2016-Jun-19 00:33N 51°31' E 000°33'0 0.0
2016-Jun-18 23:33N 51°31' E 000°33'0 0.0
2016-Jun-18 22:33N 51°31' E 000°33'0 0.0
2016-Jun-18 21:33N 51°31' E 000°33'0 0.0
2016-Jun-18 20:33N 51°31' E 000°33'0 0.0
2016-Jun-18 19:33N 51°31' E 000°33'0 0.0
2016-Jun-18 18:33N 51°31' E 000°33'0 0.0
2016-Jun-18 17:33N 51°31' E 000°33'0 0.0
2016-Jun-18 16:33N 51°31' E 000°33'0 0.0
2016-Jun-18 15:33N 51°31' E 000°33'0 0.0
2016-Jun-18 14:33N 51°31' E 000°33'0 0.0
2016-Jun-18 13:33N 51°31' E 000°33'0 0.0
2016-Jun-18 12:33N 51°31' E 000°33'0 0.0
2016-Jun-18 11:33N 51°31' E 000°33'0 0.0
2016-Jun-18 10:33N 51°31' E 000°33'0 0.0
2016-Jun-18 09:33N 51°31' E 000°33'0 0.0
2016-Jun-18 08:33N 51°31' E 000°33'0 0.0
2016-Jun-18 07:33N 51°31' E 000°33'0 0.0
2016-Jun-18 06:33N 51°31' E 000°33'0 0.0
2016-Jun-18 05:33N 51°31' E 000°33'0 0.0
2016-Jun-18 04:27N 51°31' E 000°33'0 0.0
2016-Jun-18 03:33N 51°31' E 000°33'0 0.0
2016-Jun-18 02:33N 51°31' E 000°33'0 0.0
2016-Jun-18 01:33N 51°31' E 000°33'0 0.0
2016-Jun-18 00:33N 51°31' E 000°33'0 0.0
2016-Jun-17 23:33N 51°31' E 000°33'0 0.0
2016-Jun-17 22:33N 51°31' E 000°33'0 0.0
2016-Jun-17 21:33N 51°31' E 000°33'0 0.0
2016-Jun-17 20:33N 51°31' E 000°33'7 7.2
2016-Jun-17 19:34N 51°30' E 000°45'1212.3
2016-Jun-17 18:34N 51°30' E 001°04'1413.6
2016-Jun-17 17:33N 51°30' E 001°26'2 1.9
2016-Jun-17 16:31N 51°30' E 001°29'0 0.1
2016-Jun-17 15:28N 51°30' E 001°29'0 0.1
2016-Jun-17 14:31N 51°30' E 001°29'1 1.3
2016-Jun-17 13:33N 51°29' E 001°30'1212.4
2016-Jun-17 12:33N 51°17' E 001°36'1212.1
2016-Jun-17 11:33N 51°08' E 001°24'3 3.3
2016-Jun-17 10:33N 51°07' E 001°19'0 0.0
2016-Jun-17 08:12N 51°07' E 001°19'0 0.0
2016-Jun-17 06:33N 51°07' E 001°19'6 6.2
2016-Jun-17 05:34N 51°10' E 001°28'0 0.2
2016-Jun-17 04:31N 51°10' E 001°28'0 0.0
2016-Jun-17 03:31N 51°10' E 001°28'0 0.0
2016-Jun-17 02:31N 51°10' E 001°28'0 0.1
2016-Jun-17 01:31N 51°10' E 001°28'0 0.0
2016-Jun-17 00:31N 51°10' E 001°28'0 0.0
2016-Jun-16 23:31N 51°10' E 001°28'0 0.0
2016-Jun-16 22:31N 51°10' E 001°28'0 0.0
2016-Jun-16 21:31N 51°10' E 001°28'0 0.0
2016-Jun-16 20:31N 51°10' E 001°28'0 0.0
2016-Jun-16 19:31N 51°10' E 001°28'5 4.8
2016-Jun-16 18:34N 51°12' E 001°34'1413.6
2016-Jun-16 17:33N 51°26' E 001°33'5 4.4
2016-Jun-16 16:31N 51°30' E 001°31'0 0.1
2016-Jun-16 15:31N 51°30' E 001°31'0 0.1
2016-Jun-16 14:31N 51°30' E 001°31'0 0.0
2016-Jun-16 13:31N 51°31' E 001°31'0 0.0
2016-Jun-16 12:31N 51°31' E 001°31'0 0.0
2016-Jun-16 11:31N 51°31' E 001°31'0 0.0
2016-Jun-16 10:32N 51°31' E 001°31'0 0.1
2016-Jun-16 09:31N 51°31' E 001°31'0 0.0
2016-Jun-16 08:31N 51°30' E 001°31'2 2.2
2016-Jun-16 07:33N 51°33' E 001°32'0 0.1
2016-Jun-16 06:31N 51°33' E 001°32'1 1.5
2016-Jun-16 05:33N 51°32' E 001°30'2 1.5
2016-Jun-16 04:31N 51°30' E 001°29'0 0.1
2016-Jun-16 03:25N 51°30' E 001°29'0 0.0
2016-Jun-16 02:31N 51°30' E 001°29'0 0.0
2016-Jun-16 01:31N 51°30' E 001°29'0 0.0
2016-Jun-16 00:31N 51°30' E 001°29'0 0.0
2016-Jun-15 23:31N 51°30' E 001°29'0 0.0
2016-Jun-15 22:31N 51°30' E 001°29'0 0.0
2016-Jun-15 21:31N 51°30' E 001°29'0 0.0
2016-Jun-15 20:31N 51°30' E 001°29'0 0.0
2016-Jun-15 19:31N 51°30' E 001°29'0 0.0
2016-Jun-15 18:31N 51°30' E 001°29'0 0.0
2016-Jun-15 17:31N 51°30' E 001°29'0 0.0
2016-Jun-15 16:31N 51°30' E 001°29'0 0.0
2016-Jun-15 15:28N 51°30' E 001°29'0 0.0
2016-Jun-15 14:31N 51°30' E 001°29'0 0.0
2016-Jun-15 12:31N 51°30' E 001°29'0 0.0
2016-Jun-15 11:31N 51°30' E 001°29'0 0.0
2016-Jun-15 10:31N 51°30' E 001°29'0 0.0
2016-Jun-15 09:32N 51°30' E 001°29'1 1.3
2016-Jun-15 08:33N 51°32' E 001°28'0 0.2
2016-Jun-15 07:33N 51°32' E 001°28'0 0.1
2016-Jun-15 06:33N 51°32' E 001°28'2 1.8
2016-Jun-15 05:32N 51°30' E 001°30'0 0.0
2016-Jun-15 04:32N 51°30' E 001°30'0 0.1
2016-Jun-15 03:31N 51°30' E 001°30'0 0.1
2016-Jun-15 02:32N 51°30' E 001°30'0 0.0
2016-Jun-15 01:32N 51°30' E 001°30'0 0.0
2016-Jun-15 00:31N 51°30' E 001°30'0 0.0
2016-Jun-14 23:32N 51°30' E 001°30'0 0.0
2016-Jun-14 22:31N 51°30' E 001°30'0 0.0
2016-Jun-14 21:32N 51°30' E 001°30'0 0.0
2016-Jun-14 20:31N 51°30' E 001°30'0 0.0
2016-Jun-14 19:31N 51°30' E 001°30'  

Dump ship's entire track history